sensor_id;sensor_type;location;lat;lon;timestamp;pressure;altitude;pressure_sealevel;temperature;humidity
73824;BME280;62154;54.914;73.444;2023-01-04T00:00:24;97921.81;;;-2.02;100.00
73824;BME280;62154;54.914;73.444;2023-01-04T00:02:52;97938.47;;;-2.05;100.00
73824;BME280;62154;54.914;73.444;2023-01-04T00:05:19;97940.56;;;-2.07;100.00
73824;BME280;62154;54.914;73.444;2023-01-04T00:07:47;97937.22;;;-2.09;100.00
73824;BME280;62154;54.914;73.444;2023-01-04T00:10:19;97933.00;;;-2.12;100.00
73824;BME280;62154;54.914;73.444;2023-01-04T00:12:46;97941.59;;;-2.08;100.00
73824;BME280;62154;54.914;73.444;2023-01-04T00:15:13;97947.44;;;-2.11;100.00
73824;BME280;62154;54.914;73.444;2023-01-04T00:17:40;97959.34;;;-2.13;100.00
73824;BME280;62154;54.914;73.444;2023-01-04T00:20:08;97960.38;;;-2.14;100.00
73824;BME280;62154;54.914;73.444;2023-01-04T00:22:36;97931.59;;;-2.36;100.00
73824;BME280;62154;54.914;73.444;2023-01-04T00:25:13;97966.13;;;-2.23;100.00
73824;BME280;62154;54.914;73.444;2023-01-04T00:27:40;97993.16;;;-2.15;100.00
73824;BME280;62154;54.914;73.444;2023-01-04T00:30:08;97989.56;;;-2.16;100.00
73824;BME280;62154;54.914;73.444;2023-01-04T00:32:36;97968.06;;;-2.17;100.00
73824;BME280;62154;54.914;73.444;2023-01-04T00:35:08;97989.66;;;-2.09;100.00
73824;BME280;62154;54.914;73.444;2023-01-04T00:37:36;97980.44;;;-2.08;100.00
73824;BME280;62154;54.914;73.444;2023-01-04T00:40:03;97989.00;;;-2.11;100.00
73824;BME280;62154;54.914;73.444;2023-01-04T00:42:31;97990.22;;;-2.14;100.00
73824;BME280;62154;54.914;73.444;2023-01-04T00:44:58;97989.81;;;-2.10;100.00
73824;BME280;62154;54.914;73.444;2023-01-04T00:47:25;97999.03;;;-2.11;100.00
73824;BME280;62154;54.914;73.444;2023-01-04T00:49:52;98007.78;;;-2.09;100.00
73824;BME280;62154;54.914;73.444;2023-01-04T00:52:29;98008.81;;;-2.10;100.00
73824;BME280;62154;54.914;73.444;2023-01-04T00:54:57;98004.59;;;-2.20;100.00
73824;BME280;62154;54.914;73.444;2023-01-04T00:57:24;98012.06;;;-2.22;100.00
73824;BME280;62154;54.914;73.444;2023-01-04T00:59:51;97957.09;;;-2.59;100.00
73824;BME280;62154;54.914;73.444;2023-01-04T01:02:29;98010.06;;;-2.41;100.00
73824;BME280;62154;54.914;73.444;2023-01-04T01:04:56;98021.72;;;-2.41;100.00
73824;BME280;62154;54.914;73.444;2023-01-04T01:07:23;98019.53;;;-2.52;100.00
73824;BME280;62154;54.914;73.444;2023-01-04T01:09:50;98023.13;;;-2.52;100.00
73824;BME280;62154;54.914;73.444;2023-01-04T01:12:18;98035.00;;;-2.53;100.00
73824;BME280;62154;54.914;73.444;2023-01-04T01:14:55;98025.56;;;-2.57;100.00
73824;BME280;62154;54.914;73.444;2023-01-04T01:17:22;97987.34;;;-2.84;100.00
73824;BME280;62154;54.914;73.444;2023-01-04T01:19:54;98038.75;;;-2.54;100.00
73824;BME280;62154;54.914;73.444;2023-01-04T01:22:22;98050.50;;;-2.47;100.00
73824;BME280;62154;54.914;73.444;2023-01-04T01:24:59;98047.13;;;-2.49;100.00
73824;BME280;62154;54.914;73.444;2023-01-04T01:27:27;98047.59;;;-2.45;100.00
73824;BME280;62154;54.914;73.444;2023-01-04T01:29:54;98050.09;;;-2.43;100.00
73824;BME280;62154;54.914;73.444;2023-01-04T01:32:22;98059.94;;;-2.42;100.00
73824;BME280;62154;54.914;73.444;2023-01-04T01:34:53;98062.44;;;-2.41;100.00
73824;BME280;62154;54.914;73.444;2023-01-04T01:37:31;98059.47;;;-2.46;100.00
73824;BME280;62154;54.914;73.444;2023-01-04T01:40:03;98069.75;;;-2.41;100.00
73824;BME280;62154;54.914;73.444;2023-01-04T01:42:36;98023.19;;;-2.67;100.00
73824;BME280;62154;54.914;73.444;2023-01-04T01:45:08;98019.34;;;-2.72;100.00
73824;BME280;62154;54.914;73.444;2023-01-04T01:47:46;98080.09;;;-2.30;100.00
73824;BME280;62154;54.914;73.444;2023-01-04T01:50:28;98088.19;;;-2.37;100.00
73824;BME280;62154;54.914;73.444;2023-01-04T01:52:59;98041.72;;;-2.70;100.00
73824;BME280;62154;54.914;73.444;2023-01-04T01:55:29;98081.78;;;-2.51;100.00
73824;BME280;62154;54.914;73.444;2023-01-04T01:58:04;98094.28;;;-2.50;100.00
73824;BME280;62154;54.914;73.444;2023-01-04T02:00:33;98102.81;;;-2.53;100.00
73824;BME280;62154;54.914;73.444;2023-01-04T02:03:15;98032.00;;;-3.01;100.00
73824;BME280;62154;54.914;73.444;2023-01-04T02:05:55;98114.69;;;-2.54;100.00
73824;BME280;62154;54.914;73.444;2023-01-04T02:08:29;98107.22;;;-2.52;100.00
73824;BME280;62154;54.914;73.444;2023-01-04T02:10:57;98116.19;;;-2.51;100.00
73824;BME280;62154;54.914;73.444;2023-01-04T02:13:27;98111.53;;;-2.57;100.00
73824;BME280;62154;54.914;73.444;2023-01-04T02:25:07;98138.63;;;-2.42;100.00
73824;BME280;62154;54.914;73.444;2023-01-04T02:28:51;98130.47;;;-2.42;100.00
73824;BME280;62154;54.914;73.444;2023-01-04T02:31:22;98134.06;;;-2.42;100.00
73824;BME280;62154;54.914;73.444;2023-01-04T02:33:59;98130.28;;;-2.41;100.00
73824;BME280;62154;54.914;73.444;2023-01-04T02:36:54;98075.00;;;-2.76;100.00
73824;BME280;62154;54.914;73.444;2023-01-04T02:40:08;98138.25;;;-2.39;100.00
73824;BME280;62154;54.914;73.444;2023-01-04T02:43:02;98139.91;;;-2.38;100.00
73824;BME280;62154;54.914;73.444;2023-01-04T02:45:55;98144.50;;;-2.39;100.00
73824;BME280;62154;54.914;73.444;2023-01-04T02:48:24;98162.00;;;-2.41;100.00
73824;BME280;62154;54.914;73.444;2023-01-04T02:51:30;98145.09;;;-2.58;100.00
73824;BME280;62154;54.914;73.444;2023-01-04T02:54:06;98163.47;;;-2.60;100.00
73824;BME280;62154;54.914;73.444;2023-01-04T02:56:58;98176.19;;;-2.61;100.00
73824;BME280;62154;54.914;73.444;2023-01-04T03:05:31;98195.09;;;-2.83;100.00
73824;BME280;62154;54.914;73.444;2023-01-04T03:11:14;98188.09;;;-3.07;100.00
73824;BME280;62154;54.914;73.444;2023-01-04T03:14:08;98206.53;;;-3.02;100.00
73824;BME280;62154;54.914;73.444;2023-01-04T03:16:38;98209.44;;;-3.04;100.00
73824;BME280;62154;54.914;73.444;2023-01-04T03:19:16;98222.13;;;-3.04;100.00
73824;BME280;62154;54.914;73.444;2023-01-04T03:22:05;98217.56;;;-3.04;100.00
73824;BME280;62154;54.914;73.444;2023-01-04T03:25:03;98152.41;;;-3.40;100.00
73824;BME280;62154;54.914;73.444;2023-01-04T03:27:50;98170.34;;;-3.39;100.00
73824;BME280;62154;54.914;73.444;2023-01-04T03:30:45;98175.75;;;-3.39;100.00
73824;BME280;62154;54.914;73.444;2023-01-04T03:33:47;98247.47;;;-3.12;100.00
73824;BME280;62154;54.914;73.444;2023-01-04T03:46:09;98247.44;;;-3.27;100.00
73824;BME280;62154;54.914;73.444;2023-01-04T03:49:22;98253.97;;;-3.36;100.00
73824;BME280;62154;54.914;73.444;2023-01-04T03:51:59;98263.78;;;-3.35;100.00
73824;BME280;62154;54.914;73.444;2023-01-04T03:54:36;98264.41;;;-3.33;100.00
73824;BME280;62154;54.914;73.444;2023-01-04T03:57:06;98221.84;;;-3.63;100.00
73824;BME280;62154;54.914;73.444;2023-01-04T03:59:40;98276.75;;;-3.31;100.00
73824;BME280;62154;54.914;73.444;2023-01-04T04:02:24;98285.03;;;-3.24;100.00
73824;BME280;62154;54.914;73.444;2023-01-04T04:04:55;98272.09;;;-3.37;100.00
73824;BME280;62154;54.914;73.444;2023-01-04T04:07:41;98301.91;;;-3.22;100.00
73824;BME280;62154;54.914;73.444;2023-01-04T04:10:26;98290.44;;;-3.24;100.00
73824;BME280;62154;54.914;73.444;2023-01-04T04:12:54;98321.84;;;-3.15;100.00
73824;BME280;62154;54.914;73.444;2023-01-04T04:15:21;98255.41;;;-3.49;100.00
73824;BME280;62154;54.914;73.444;2023-01-04T04:17:48;98307.47;;;-3.15;100.00
73824;BME280;62154;54.914;73.444;2023-01-04T04:20:26;98332.63;;;-3.06;100.00
73824;BME280;62154;54.914;73.444;2023-01-04T04:22:53;98265.03;;;-3.46;100.00
73824;BME280;62154;54.914;73.444;2023-01-04T04:25:21;98270.75;;;-3.41;100.00
73824;BME280;62154;54.914;73.444;2023-01-04T04:27:58;98338.63;;;-2.96;100.00
73824;BME280;62154;54.914;73.444;2023-01-04T04:30:28;98349.19;;;-3.01;100.00
73824;BME280;62154;54.914;73.444;2023-01-04T04:33:01;98355.16;;;-3.06;100.00
73824;BME280;62154;54.914;73.444;2023-01-04T04:35:28;98358.78;;;-3.14;100.00
73824;BME280;62154;54.914;73.444;2023-01-04T04:37:55;98364.63;;;-3.25;100.00
73824;BME280;62154;54.914;73.444;2023-01-04T04:40:22;98369.88;;;-3.23;100.00
73824;BME280;62154;54.914;73.444;2023-01-04T04:43:08;98375.66;;;-3.26;100.00
73824;BME280;62154;54.914;73.444;2023-01-04T04:45:41;98373.78;;;-3.26;100.00
73824;BME280;62154;54.914;73.444;2023-01-04T04:48:08;98381.56;;;-3.23;100.00
73824;BME280;62154;54.914;73.444;2023-01-04T04:50:46;98386.50;;;-3.26;100.00
73824;BME280;62154;54.914;73.444;2023-01-04T04:53:13;98378.22;;;-3.33;100.00
73824;BME280;62154;54.914;73.444;2023-01-04T04:55:40;98268.84;;;-4.02;100.00
73824;BME280;62154;54.914;73.444;2023-01-04T04:58:19;98388.91;;;-3.32;100.00
73824;BME280;62154;54.914;73.444;2023-01-04T05:00:46;98399.91;;;-3.33;100.00
73824;BME280;62154;54.914;73.444;2023-01-04T05:03:14;98388.84;;;-3.47;100.00
73824;BME280;62154;54.914;73.444;2023-01-04T05:05:51;98396.16;;;-3.55;100.00
73824;BME280;62154;54.914;73.444;2023-01-04T05:08:24;98412.72;;;-3.50;100.00
73824;BME280;62154;54.914;73.444;2023-01-04T05:10:57;98405.19;;;-3.63;100.00
73824;BME280;62154;54.914;73.444;2023-01-04T05:13:24;98412.31;;;-3.62;100.00
73824;BME280;62154;54.914;73.444;2023-01-04T05:15:52;98421.56;;;-3.56;100.00
73824;BME280;62154;54.914;73.444;2023-01-04T05:18:31;98368.16;;;-4.02;100.00
73824;BME280;62154;54.914;73.444;2023-01-04T05:20:58;98432.28;;;-3.63;100.00
73824;BME280;62154;54.914;73.444;2023-01-04T05:23:26;98426.53;;;-3.68;100.00
73824;BME280;62154;54.914;73.444;2023-01-04T05:25:56;98429.59;;;-3.71;100.00
73824;BME280;62154;54.914;73.444;2023-01-04T05:28:24;98442.97;;;-3.70;100.00
73824;BME280;62154;54.914;73.444;2023-01-04T05:30:52;98448.72;;;-3.73;100.00
73824;BME280;62154;54.914;73.444;2023-01-04T05:33:31;98452.63;;;-3.75;100.00
73824;BME280;62154;54.914;73.444;2023-01-04T05:36:04;98478.38;;;-3.80;100.00
73824;BME280;62154;54.914;73.444;2023-01-04T05:38:32;98465.72;;;-3.87;100.00
73824;BME280;62154;54.914;73.444;2023-01-04T05:41:00;98470.97;;;-3.86;100.00
73824;BME280;62154;54.914;73.444;2023-01-04T05:43:27;98490.59;;;-3.84;100.00
73824;BME280;62154;54.914;73.444;2023-01-04T05:45:55;98485.84;;;-3.82;100.00
73824;BME280;62154;54.914;73.444;2023-01-04T05:48:24;98367.66;;;-4.54;100.00
73824;BME280;62154;54.914;73.444;2023-01-04T05:50:52;98492.94;;;-3.81;100.00
73824;BME280;62154;54.914;73.444;2023-01-04T05:53:24;98441.28;;;-4.19;99.96
73824;BME280;62154;54.914;73.444;2023-01-04T05:55:52;98498.22;;;-3.87;99.99
73824;BME280;62154;54.914;73.444;2023-01-04T05:58:19;98499.91;;;-3.95;99.84
73824;BME280;62154;54.914;73.444;2023-01-04T06:00:56;98508.72;;;-4.01;99.60
73824;BME280;62154;54.914;73.444;2023-01-04T06:03:25;98521.59;;;-4.03;99.78
73824;BME280;62154;54.914;73.444;2023-01-04T06:05:53;98528.19;;;-4.05;99.71
73824;BME280;62154;54.914;73.444;2023-01-04T06:08:28;98528.72;;;-4.18;99.38
73824;BME280;62154;54.914;73.444;2023-01-04T06:11:06;98505.41;;;-4.36;100.00
73824;BME280;62154;54.914;73.444;2023-01-04T06:13:36;98529.94;;;-4.29;100.00
73824;BME280;62154;54.914;73.444;2023-01-04T06:16:05;98552.44;;;-4.37;99.43
73824;BME280;62154;54.914;73.444;2023-01-04T06:18:37;98536.53;;;-4.48;99.71
73824;BME280;62154;54.914;73.444;2023-01-04T06:21:09;98516.75;;;-4.65;99.77
73824;BME280;62154;54.914;73.444;2023-01-04T06:23:47;98535.00;;;-4.59;99.53
73824;BME280;62154;54.914;73.444;2023-01-04T06:26:15;98537.72;;;-4.67;99.29
73824;BME280;62154;54.914;73.444;2023-01-04T06:28:48;98561.88;;;-4.66;99.62
73824;BME280;62154;54.914;73.444;2023-01-04T06:31:21;98561.19;;;-4.68;99.98
73824;BME280;62154;54.914;73.444;2023-01-04T06:33:49;98562.19;;;-4.69;100.00
73824;BME280;62154;54.914;73.444;2023-01-04T06:36:21;98570.97;;;-4.75;100.00
73824;BME280;62154;54.914;73.444;2023-01-04T06:38:49;98574.38;;;-4.73;99.98
73824;BME280;62154;54.914;73.444;2023-01-04T06:41:17;98579.44;;;-4.78;99.96
73824;BME280;62154;54.914;73.444;2023-01-04T06:43:44;98514.81;;;-5.22;99.86
73824;BME280;62154;54.914;73.444;2023-01-04T06:46:12;98501.97;;;-5.29;99.84
73824;BME280;62154;54.914;73.444;2023-01-04T06:48:40;98546.06;;;-5.20;99.60
73824;BME280;62154;54.914;73.444;2023-01-04T06:51:08;98590.38;;;-4.88;99.70
73824;BME280;62154;54.914;73.444;2023-01-04T06:53:35;98597.50;;;-4.87;99.89
73824;BME280;62154;54.914;73.444;2023-01-04T06:56:02;98608.47;;;-4.88;99.73
73824;BME280;62154;54.914;73.444;2023-01-04T06:58:35;98602.56;;;-4.92;99.41
73824;BME280;62154;54.914;73.444;2023-01-04T07:01:02;98530.81;;;-5.46;99.26
73824;BME280;62154;54.914;73.444;2023-01-04T07:03:30;98618.41;;;-4.97;99.28
73824;BME280;62154;54.914;73.444;2023-01-04T07:06:07;98621.13;;;-4.97;98.94
73824;BME280;62154;54.914;73.444;2023-01-04T07:08:39;98629.41;;;-4.99;98.76
73824;BME280;62154;54.914;73.444;2023-01-04T07:11:11;98617.66;;;-5.16;98.67
73824;BME280;62154;54.914;73.444;2023-01-04T07:13:38;98507.28;;;-6.04;98.65
73824;BME280;62154;54.914;73.444;2023-01-04T07:16:08;98631.53;;;-5.11;98.57
73824;BME280;62154;54.914;73.444;2023-01-04T07:18:35;98557.03;;;-5.64;98.39
73824;BME280;62154;54.914;73.444;2023-01-04T07:21:07;98573.47;;;-5.49;98.57
73824;BME280;62154;54.914;73.444;2023-01-04T07:23:35;98651.47;;;-5.12;98.26
73824;BME280;62154;54.914;73.444;2023-01-04T07:26:02;98651.63;;;-5.13;98.40
73824;BME280;62154;54.914;73.444;2023-01-04T07:28:30;98599.84;;;-5.43;98.17
73824;BME280;62154;54.914;73.444;2023-01-04T07:31:16;98602.03;;;-5.38;97.86
73824;BME280;62154;54.914;73.444;2023-01-04T07:33:53;98591.88;;;-5.45;98.05
73824;BME280;62154;54.914;73.444;2023-01-04T07:36:23;98651.16;;;-5.09;97.81
73824;BME280;62154;54.914;73.444;2023-01-04T07:38:55;98664.84;;;-5.02;97.96
73824;BME280;62154;54.914;73.444;2023-01-04T07:41:27;98633.88;;;-5.16;97.66
73824;BME280;62154;54.914;73.444;2023-01-04T07:44:05;98602.41;;;-5.33;97.77
73824;BME280;62154;54.914;73.444;2023-01-04T07:46:35;98665.72;;;-5.01;98.04
73824;BME280;62154;54.914;73.444;2023-01-04T07:49:03;98611.66;;;-5.36;98.06
73824;BME280;62154;54.914;73.444;2023-01-04T07:51:31;98684.97;;;-4.96;97.71
73824;BME280;62154;54.914;73.444;2023-01-04T07:53:59;98695.63;;;-4.95;97.57
73824;BME280;62154;54.914;73.444;2023-01-04T07:56:26;98696.16;;;-4.91;97.42
73824;BME280;62154;54.914;73.444;2023-01-04T07:58:53;98691.69;;;-5.00;97.21
73824;BME280;62154;54.914;73.444;2023-01-04T08:01:24;98712.69;;;-4.94;97.11
73824;BME280;62154;54.914;73.444;2023-01-04T08:03:52;98696.09;;;-4.99;97.01
73824;BME280;62154;54.914;73.444;2023-01-04T08:06:20;98699.84;;;-4.92;97.00
73824;BME280;62154;54.914;73.444;2023-01-04T08:08:53;98639.22;;;-5.32;96.78
73824;BME280;62154;54.914;73.444;2023-01-04T08:11:33;98670.41;;;-5.12;96.30
73824;BME280;62154;54.914;73.444;2023-01-04T08:14:03;98714.75;;;-4.88;96.23
73824;BME280;62154;54.914;73.444;2023-01-04T08:16:38;98713.00;;;-4.97;96.09
73824;BME280;62154;54.914;73.444;2023-01-04T08:19:15;98726.78;;;-4.82;96.20
73824;BME280;62154;54.914;73.444;2023-01-04T08:21:43;98714.19;;;-5.00;95.67
73824;BME280;62154;54.914;73.444;2023-01-04T08:24:12;98702.50;;;-5.09;95.72
73824;BME280;62154;54.914;73.444;2023-01-04T08:26:41;98742.59;;;-4.96;95.37
73824;BME280;62154;54.914;73.444;2023-01-04T08:29:10;98754.97;;;-4.85;95.23
73824;BME280;62154;54.914;73.444;2023-01-04T08:31:38;98761.03;;;-4.91;95.43
73824;BME280;62154;54.914;73.444;2023-01-04T08:34:15;98736.28;;;-5.04;95.83
73824;BME280;62154;54.914;73.444;2023-01-04T08:36:48;98770.56;;;-4.79;96.14
73824;BME280;62154;54.914;73.444;2023-01-04T08:39:16;98697.19;;;-5.18;95.96
73824;BME280;62154;54.914;73.444;2023-01-04T08:41:53;98768.16;;;-4.82;95.95
73824;BME280;62154;54.914;73.444;2023-01-04T08:44:23;98719.97;;;-5.21;95.70
73824;BME280;62154;54.914;73.444;2023-01-04T08:46:52;98782.66;;;-4.91;95.38
73824;BME280;62154;54.914;73.444;2023-01-04T08:49:20;98787.06;;;-4.90;95.58
73824;BME280;62154;54.914;73.444;2023-01-04T08:51:48;98807.97;;;-4.92;95.30
73824;BME280;62154;54.914;73.444;2023-01-04T08:54:15;98803.69;;;-5.03;95.16
73824;BME280;62154;54.914;73.444;2023-01-04T08:56:43;98818.34;;;-5.05;95.48
73824;BME280;62154;54.914;73.444;2023-01-04T08:59:11;98823.66;;;-5.22;95.81
73824;BME280;62154;54.914;73.444;2023-01-04T09:01:39;98833.53;;;-5.13;95.96
73824;BME280;62154;54.914;73.444;2023-01-04T09:04:09;98835.16;;;-5.20;95.80
73824;BME280;62154;54.914;73.444;2023-01-04T09:06:37;98764.09;;;-5.65;95.58
73824;BME280;62154;54.914;73.444;2023-01-04T09:09:10;98837.41;;;-5.33;96.05
73824;BME280;62154;54.914;73.444;2023-01-04T09:11:37;98852.94;;;-5.35;96.32
73824;BME280;62154;54.914;73.444;2023-01-04T09:14:08;98773.88;;;-5.82;96.58
73824;BME280;62154;54.914;73.444;2023-01-04T09:16:37;98851.94;;;-5.34;96.66
73824;BME280;62154;54.914;73.444;2023-01-04T09:19:04;98854.47;;;-5.33;96.70
73824;BME280;62154;54.914;73.444;2023-01-04T09:21:32;98854.66;;;-5.34;96.74
73824;BME280;62154;54.914;73.444;2023-01-04T09:24:00;98858.41;;;-5.45;96.75
73824;BME280;62154;54.914;73.444;2023-01-04T09:26:34;98868.28;;;-5.54;96.49
73824;BME280;62154;54.914;73.444;2023-01-04T09:29:02;98892.53;;;-5.62;96.46
73824;BME280;62154;54.914;73.444;2023-01-04T09:31:36;98874.16;;;-5.77;96.14
73824;BME280;62154;54.914;73.444;2023-01-04T09:34:03;98890.19;;;-5.75;96.44
73824;BME280;62154;54.914;73.444;2023-01-04T09:36:31;98903.16;;;-5.79;96.74
73824;BME280;62154;54.914;73.444;2023-01-04T09:38:58;98891.56;;;-5.89;96.80
73824;BME280;62154;54.914;73.444;2023-01-04T09:41:27;98902.66;;;-5.92;97.15
73824;BME280;62154;54.914;73.444;2023-01-04T09:44:02;98898.81;;;-6.08;97.37
73824;BME280;62154;54.914;73.444;2023-01-04T09:46:54;98911.31;;;-6.07;97.28
73824;BME280;62154;54.914;73.444;2023-01-04T09:52:17;98920.47;;;-6.27;97.39
73824;BME280;62154;54.914;73.444;2023-01-04T09:54:58;98920.78;;;-6.30;97.35
73824;BME280;62154;54.914;73.444;2023-01-04T09:57:32;98936.72;;;-6.37;97.32
73824;BME280;62154;54.914;73.444;2023-01-04T10:00:19;98940.72;;;-6.51;96.94
73824;BME280;62154;54.914;73.444;2023-01-04T10:03:14;98959.88;;;-6.64;96.82
73824;BME280;62154;54.914;73.444;2023-01-04T10:05:42;98894.47;;;-7.13;96.97
73824;BME280;62154;54.914;73.444;2023-01-04T10:08:16;98899.56;;;-7.20;97.04
73824;BME280;62154;54.914;73.444;2023-01-04T10:22:34;99002.09;;;-7.12;95.88
73824;BME280;62154;54.914;73.444;2023-01-04T10:27:58;99006.16;;;-7.27;95.19
73824;BME280;62154;54.914;73.444;2023-01-04T10:33:25;98940.16;;;-7.92;94.79
73824;BME280;62154;54.914;73.444;2023-01-04T10:35:56;99028.66;;;-7.48;94.91
73824;BME280;62154;54.914;73.444;2023-01-04T10:38:34;99018.41;;;-7.64;94.85
73824;BME280;62154;54.914;73.444;2023-01-04T10:41:10;99026.81;;;-7.57;94.72
73824;BME280;62154;54.914;73.444;2023-01-04T10:43:50;99039.09;;;-7.64;94.71
73824;BME280;62154;54.914;73.444;2023-01-04T10:47:01;99049.28;;;-7.68;94.29
73824;BME280;62154;54.914;73.444;2023-01-04T10:49:47;99045.16;;;-7.72;94.42
73824;BME280;62154;54.914;73.444;2023-01-04T10:52:40;99047.56;;;-7.79;94.63
73824;BME280;62154;54.914;73.444;2023-01-04T10:55:27;99055.44;;;-7.87;94.25
73824;BME280;62154;54.914;73.444;2023-01-04T10:58:18;99058.91;;;-8.06;94.07
73824;BME280;62154;54.914;73.444;2023-01-04T11:00:55;99050.47;;;-8.23;94.21
73824;BME280;62154;54.914;73.444;2023-01-04T11:06:10;99076.69;;;-8.36;94.83
73824;BME280;62154;54.914;73.444;2023-01-04T11:08:55;98979.47;;;-8.93;95.00
73824;BME280;62154;54.914;73.444;2023-01-04T11:11:34;99010.59;;;-8.70;95.08
73824;BME280;62154;54.914;73.444;2023-01-04T11:14:10;99078.25;;;-8.33;94.98
73824;BME280;62154;54.914;73.444;2023-01-04T11:16:45;99079.28;;;-8.34;95.06
73824;BME280;62154;54.914;73.444;2023-01-04T11:19:23;99081.31;;;-8.48;94.65
73824;BME280;62154;54.914;73.444;2023-01-04T11:22:20;99087.03;;;-8.62;94.36
73824;BME280;62154;54.914;73.444;2023-01-04T11:25:02;99075.47;;;-8.74;94.19
73824;BME280;62154;54.914;73.444;2023-01-04T11:27:39;99096.13;;;-8.75;93.70
73824;BME280;62154;54.914;73.444;2023-01-04T11:30:23;99092.72;;;-8.88;93.53
73824;BME280;62154;54.914;73.444;2023-01-04T11:35:38;99104.00;;;-9.06;93.56
73824;BME280;62154;54.914;73.444;2023-01-04T11:38:22;99058.59;;;-9.41;93.72
73824;BME280;62154;54.914;73.444;2023-01-04T11:43:22;99050.00;;;-9.68;93.93
73824;BME280;62154;54.914;73.444;2023-01-04T11:48:42;99067.69;;;-9.65;94.23
73824;BME280;62154;54.914;73.444;2023-01-04T11:56:35;99131.31;;;-9.33;94.77
73824;BME280;62154;54.914;73.444;2023-01-04T12:01:33;99155.06;;;-9.28;95.20
73824;BME280;62154;54.914;73.444;2023-01-04T12:04:01;99156.44;;;-9.34;95.21
73824;BME280;62154;54.914;73.444;2023-01-04T12:07:11;99144.59;;;-9.43;95.23
73824;BME280;62154;54.914;73.444;2023-01-04T12:09:20;99138.75;;;-9.48;95.32
73824;BME280;62154;54.914;73.444;2023-01-04T12:12:00;99145.47;;;-9.54;95.26
73824;BME280;62154;54.914;73.444;2023-01-04T12:14:35;99169.00;;;-9.69;94.88
73824;BME280;62154;54.914;73.444;2023-01-04T12:19:43;99174.09;;;-9.77;95.03
73824;BME280;62154;54.914;73.444;2023-01-04T12:22:23;99184.13;;;-9.79;94.97
73824;BME280;62154;54.914;73.444;2023-01-04T12:24:52;99159.81;;;-10.00;94.80
73824;BME280;62154;54.914;73.444;2023-01-04T12:27:19;99171.50;;;-10.01;94.62
73824;BME280;62154;54.914;73.444;2023-01-04T12:30:05;99102.84;;;-10.49;93.80
73824;BME280;62154;54.914;73.444;2023-01-04T12:32:42;99161.50;;;-10.22;94.22
73824;BME280;62154;54.914;73.444;2023-01-04T12:42:09;99172.00;;;-10.54;94.61
73824;BME280;62154;54.914;73.444;2023-01-04T12:50:38;99222.91;;;-10.54;94.12
73824;BME280;62154;54.914;73.444;2023-01-04T12:53:50;99181.13;;;-10.81;93.96
73824;BME280;62154;54.914;73.444;2023-01-04T12:59:36;99122.00;;;-11.26;94.00
73824;BME280;62154;54.914;73.444;2023-01-04T13:02:30;99231.31;;;-10.72;94.02
73824;BME280;62154;54.914;73.444;2023-01-04T13:07:52;99108.09;;;-11.69;93.11
73824;BME280;62154;54.914;73.444;2023-01-04T13:10:40;99189.00;;;-11.28;92.64
73824;BME280;62154;54.914;73.444;2023-01-04T13:16:02;99262.38;;;-11.06;92.26
73824;BME280;62154;54.914;73.444;2023-01-04T13:21:19;99248.25;;;-11.08;92.29
73824;BME280;62154;54.914;73.444;2023-01-04T13:23:58;99241.00;;;-11.19;91.89
73824;BME280;62154;54.914;73.444;2023-01-04T13:29:16;99237.38;;;-11.44;91.57
73824;BME280;62154;54.914;73.444;2023-01-04T13:31:51;99251.50;;;-11.42;91.69
73824;BME280;62154;54.914;73.444;2023-01-04T13:39:50;99259.00;;;-11.34;91.72
73824;BME280;62154;54.914;73.444;2023-01-04T13:42:22;99255.25;;;-11.32;91.58
73824;BME280;62154;54.914;73.444;2023-01-04T13:47:40;99229.78;;;-11.63;91.19
73824;BME280;62154;54.914;73.444;2023-01-04T13:50:38;99246.38;;;-11.58;90.80
73824;BME280;62154;54.914;73.444;2023-01-04T13:53:22;99246.72;;;-11.62;91.24
73824;BME280;62154;54.914;73.444;2023-01-04T13:55:52;99245.97;;;-11.65;91.43
73824;BME280;62154;54.914;73.444;2023-01-04T13:58:22;99252.25;;;-11.66;91.38
73824;BME280;62154;54.914;73.444;2023-01-04T14:05:55;99098.88;;;-12.53;91.08
73824;BME280;62154;54.914;73.444;2023-01-04T14:08:37;99229.56;;;-11.73;91.25
73824;BME280;62154;54.914;73.444;2023-01-04T14:11:23;99225.88;;;-11.70;91.50
73824;BME280;62154;54.914;73.444;2023-01-04T14:20:00;99241.25;;;-12.00;90.81
73824;BME280;62154;54.914;73.444;2023-01-04T14:28:25;99170.81;;;-12.77;90.88
73824;BME280;62154;54.914;73.444;2023-01-04T14:33:31;99243.38;;;-12.45;91.03
73824;BME280;62154;54.914;73.444;2023-01-04T14:36:27;99201.25;;;-12.95;90.99
73824;BME280;62154;54.914;73.444;2023-01-04T14:41:51;99260.50;;;-12.75;91.32
73824;BME280;62154;54.914;73.444;2023-01-04T14:44:24;99247.94;;;-12.87;91.20
73824;BME280;62154;54.914;73.444;2023-01-04T14:46:56;99247.50;;;-12.94;91.34
73824;BME280;62154;54.914;73.444;2023-01-04T14:49:24;99166.75;;;-13.52;91.19
73824;BME280;62154;54.914;73.444;2023-01-04T14:51:56;99252.38;;;-13.15;91.29
73824;BME280;62154;54.914;73.444;2023-01-04T14:54:34;99259.44;;;-13.29;91.54
73824;BME280;62154;54.914;73.444;2023-01-04T14:57:04;99171.63;;;-13.73;91.41
73824;BME280;62154;54.914;73.444;2023-01-04T14:59:31;99225.03;;;-13.46;91.63
73824;BME280;62154;54.914;73.444;2023-01-04T15:01:59;99126.09;;;-14.12;91.68
73824;BME280;62154;54.914;73.444;2023-01-04T15:04:31;99227.19;;;-13.53;91.99
73824;BME280;62154;54.914;73.444;2023-01-04T15:09:56;99230.56;;;-13.64;91.85
73824;BME280;62154;54.914;73.444;2023-01-04T15:12:34;99227.50;;;-13.72;91.84
73824;BME280;62154;54.914;73.444;2023-01-04T15:15:06;99174.28;;;-14.02;91.96
73824;BME280;62154;54.914;73.444;2023-01-04T15:17:33;99138.31;;;-14.24;92.15
73824;BME280;62154;54.914;73.444;2023-01-04T15:20:07;99192.84;;;-13.86;92.27
73824;BME280;62154;54.914;73.444;2023-01-04T15:22:40;99100.59;;;-14.31;92.08
73824;BME280;62154;54.914;73.444;2023-01-04T15:25:14;99118.09;;;-14.12;91.74
73824;BME280;62154;54.914;73.444;2023-01-04T15:27:42;99188.28;;;-13.70;91.86
73824;BME280;62154;54.914;73.444;2023-01-04T15:30:12;99120.66;;;-14.11;91.86